createdAt,value
2023-03-10T09:49:04.770Z,983.32
2023-03-10T09:49:33.244Z,983.33
2023-03-10T09:50:02.349Z,983.31
2023-03-10T09:50:33.324Z,983.29
2023-03-10T09:51:02.321Z,983.32
2023-03-10T09:51:32.565Z,983.31
2023-03-10T09:52:02.313Z,983.32
2023-03-10T09:52:32.320Z,983.34
2023-03-10T09:53:02.293Z,983.34
2023-03-10T09:53:33.251Z,983.32
2023-03-10T09:54:02.584Z,983.33
2023-03-10T09:54:33.410Z,983.34
2023-03-10T09:55:02.289Z,983.31
2023-03-10T09:55:32.255Z,983.33
2023-03-10T09:56:02.383Z,983.32
2023-03-10T09:56:32.247Z,983.32
2023-03-10T09:57:02.181Z,983.30
2023-03-10T09:57:32.205Z,983.31
2023-03-10T09:58:03.965Z,983.32
2023-03-10T09:59:40.815Z,983.29
2023-03-10T10:00:11.029Z,983.27
2023-03-10T10:00:40.781Z,983.27
2023-03-10T10:01:10.859Z,983.26
2023-03-10T10:01:40.730Z,983.24
2023-03-10T10:02:10.724Z,983.24
2023-03-10T10:02:40.892Z,983.21
2023-03-10T10:03:10.730Z,983.23
2023-03-10T10:03:52.101Z,983.20
2023-03-10T10:04:10.858Z,983.23
2023-03-10T10:04:43.715Z,983.26
2023-03-10T10:05:10.658Z,983.27
2023-03-10T10:05:40.596Z,983.28
2023-03-10T10:06:10.699Z,983.27
2023-03-10T10:06:40.712Z,983.30
2023-03-10T10:07:14.023Z,983.27
2023-03-10T10:07:40.565Z,983.26
2023-03-10T10:08:10.521Z,983.32
2023-03-10T10:08:40.501Z,983.30
2023-03-10T10:09:10.481Z,983.35
2023-03-10T10:09:40.465Z,983.35
2023-03-10T10:10:10.582Z,983.32
2023-03-10T10:10:40.429Z,983.39
2023-03-10T10:11:10.409Z,983.36
2023-03-10T10:11:40.413Z,983.36
2023-03-10T10:12:10.373Z,983.35
2023-03-10T10:12:40.312Z,983.36
2023-03-10T10:13:10.319Z,983.36
2023-03-10T10:13:43.072Z,983.34
2023-03-10T10:14:13.205Z,983.34
2023-03-10T10:14:45.102Z,983.38
2023-03-10T10:15:10.260Z,983.34
2023-03-10T10:15:40.226Z,983.34
2023-03-10T10:16:28.049Z,983.36
2023-03-10T10:16:40.491Z,983.26
2023-03-10T10:17:10.307Z,983.29
2023-03-10T10:17:50.841Z,983.34
